createdAt,value
2022-09-10T00:03:55.966Z,99621.19
2022-09-10T00:07:58.291Z,99637.50
2022-09-10T00:12:00.020Z,99614.34
2022-09-10T00:16:03.754Z,99619.03
2022-09-10T00:20:06.533Z,99641.53
2022-09-10T00:24:08.515Z,99639.09
2022-09-10T00:28:10.260Z,99642.97
2022-09-10T00:32:11.963Z,99657.75
2022-09-10T00:36:19.740Z,99649.66
2022-09-10T00:40:21.439Z,99644.59
2022-09-10T00:44:43.511Z,99645.06
2022-09-10T00:48:45.227Z,99623.75
2022-09-10T00:52:47.480Z,99633.50
2022-09-10T00:56:49.693Z,99627.91
2022-09-10T01:00:54.535Z,99635.03
2022-09-10T01:04:56.393Z,99616.19
2022-09-10T01:08:58.716Z,99612.50
2022-09-10T01:13:29.629Z,99618.19
2022-09-10T01:17:45.666Z,99616.75
2022-09-10T01:22:05.478Z,99609.38
2022-09-10T01:26:47.261Z,99623.69
2022-09-10T01:30:53.476Z,99620.88
2022-09-10T01:35:17.683Z,99630.00
2022-09-10T01:39:20.113Z,99634.22
2022-09-10T01:43:22.999Z,99633.09
2022-09-10T01:48:00.912Z,99623.75
2022-09-10T01:52:37.186Z,99633.31
2022-09-10T01:56:54.002Z,99629.97
2022-09-10T02:01:42.575Z,99634.00
2022-09-10T02:05:51.531Z,99628.81
2022-09-10T02:10:07.604Z,99630.63
2022-09-10T02:14:15.526Z,99620.44
2022-09-10T02:18:24.536Z,99635.72
2022-09-10T02:22:26.439Z,99625.19
2022-09-10T02:26:28.159Z,99635.00
2022-09-10T02:30:30.143Z,99628.53
2022-09-10T02:34:32.448Z,99632.81
2022-09-10T02:38:36.939Z,99620.31
2022-09-10T02:42:38.929Z,99643.88
2022-09-10T02:46:40.693Z,99630.44
2022-09-10T02:50:45.790Z,99626.59
2022-09-10T02:54:49.124Z,99626.31
2022-09-10T02:58:51.122Z,99650.06
2022-09-10T03:02:52.846Z,99614.72
2022-09-10T03:06:54.985Z,99629.78
2022-09-10T03:10:58.134Z,99635.44
2022-09-10T03:14:59.918Z,99631.25
2022-09-10T03:19:01.643Z,99627.09
2022-09-10T03:23:05.956Z,99622.38
2022-09-10T03:27:08.543Z,99626.56
2022-09-10T03:31:11.050Z,99630.94
2022-09-10T03:35:13.755Z,99637.22
2022-09-10T03:39:16.285Z,99649.84
2022-09-10T03:43:20.028Z,99673.06
2022-09-10T03:47:21.940Z,99670.81
2022-09-10T03:51:23.662Z,99678.31
2022-09-10T03:55:25.453Z,99672.63
2022-09-10T03:59:27.126Z,99678.53
2022-09-10T04:03:29.236Z,99672.00
2022-09-10T04:07:30.905Z,99698.78
2022-09-10T04:11:33.256Z,99683.31
2022-09-10T04:15:35.002Z,99685.69
2022-09-10T04:19:37.977Z,99695.28
2022-09-10T04:23:42.324Z,99679.75
2022-09-10T04:27:44.289Z,99685.56
2022-09-10T04:31:46.749Z,99697.94
2022-09-10T04:35:48.563Z,99702.28
2022-09-10T04:39:51.561Z,99707.91
2022-09-10T04:43:53.315Z,99706.44
2022-09-10T04:47:56.021Z,99706.06
2022-09-10T04:51:57.804Z,99706.97
2022-09-10T04:55:59.471Z,99705.41
2022-09-10T05:00:01.418Z,99705.38
2022-09-10T05:04:04.079Z,99705.72
2022-09-10T05:08:07.430Z,99722.38
2022-09-10T05:12:09.245Z,99683.72
2022-09-10T05:16:11.765Z,99682.50
2022-09-10T05:20:14.049Z,99668.44
2022-09-10T05:24:16.507Z,99663.44
2022-09-10T05:28:18.223Z,99653.44
2022-09-10T05:32:19.971Z,99650.66
2022-09-10T05:36:21.856Z,99646.78
2022-09-10T05:40:23.667Z,99649.03
2022-09-10T05:44:25.392Z,99635.34
2022-09-10T05:48:27.165Z,99648.91
2022-09-10T05:52:30.935Z,99630.59
2022-09-10T05:56:35.893Z,99629.38
2022-09-10T06:00:37.608Z,99622.78
2022-09-10T06:04:40.599Z,99631.41
2022-09-10T06:08:42.519Z,99633.81
2022-09-10T06:12:47.954Z,99619.25
2022-09-10T06:16:49.981Z,99617.13
2022-09-10T06:21:05.344Z,99622.06
2022-09-10T06:25:07.647Z,99630.94
2022-09-10T06:29:09.479Z,99634.13
2022-09-10T06:33:13.201Z,99644.28
2022-09-10T06:37:15.131Z,99640.47
2022-09-10T06:41:17.226Z,99650.81
2022-09-10T06:45:19.360Z,99642.13
2022-09-10T06:49:21.713Z,99632.03
2022-09-10T06:53:24.700Z,99623.38
2022-09-10T06:57:26.875Z,99624.00
2022-09-10T07:01:31.801Z,99622.94
2022-09-10T07:05:39.481Z,99609.13
2022-09-10T07:09:41.267Z,99626.91
2022-09-10T07:13:43.287Z,99624.50
2022-09-10T07:17:47.505Z,99620.19
2022-09-10T07:21:50.147Z,99608.00
2022-09-10T07:25:52.009Z,99618.38
2022-09-10T07:29:53.703Z,99618.41
2022-09-10T07:33:57.672Z,99621.13
2022-09-10T07:38:00.203Z,99620.66
2022-09-10T07:42:01.909Z,99621.72
2022-09-10T07:46:04.403Z,99632.81
2022-09-10T07:50:07.189Z,99623.91
2022-09-10T07:54:08.952Z,99622.94
2022-09-10T07:58:10.895Z,99621.91
2022-09-10T08:02:15.464Z,99649.97
2022-09-10T08:06:17.496Z,99646.91
2022-09-10T08:10:19.605Z,99655.22
2022-09-10T08:14:21.370Z,99651.09
2022-09-10T08:18:23.214Z,99644.28
2022-09-10T08:22:25.288Z,99642.56
2022-09-10T08:26:27.481Z,99647.47
2022-09-10T08:30:30.439Z,99647.94
2022-09-10T08:34:32.154Z,99648.06
2022-09-10T08:38:40.038Z,99642.13
2022-09-10T08:42:47.027Z,99651.28
2022-09-10T08:47:29.980Z,99650.34
2022-09-10T08:51:40.014Z,99650.13
2022-09-10T08:55:44.169Z,99643.19
2022-09-10T08:59:50.187Z,99637.47
2022-09-10T09:03:51.878Z,99645.16
2022-09-10T09:07:53.799Z,99628.56
2022-09-10T09:12:33.980Z,99644.63
2022-09-10T09:17:05.146Z,99639.69
2022-09-10T09:21:17.494Z,99637.50
2022-09-10T09:25:30.813Z,99637.28
2022-09-10T09:29:38.129Z,99631.75
2022-09-10T09:33:40.068Z,99622.88
2022-09-10T09:37:49.495Z,99612.97
2022-09-10T09:42:24.120Z,99622.66
2022-09-10T09:46:26.213Z,99627.19
2022-09-10T09:50:28.633Z,99625.34
2022-09-10T09:55:03.322Z,99629.31
2022-09-10T10:03:28.481Z,99624.81
2022-09-10T10:07:32.688Z,99618.59
2022-09-10T10:12:02.885Z,99605.59
2022-09-10T10:16:37.585Z,99605.72
2022-09-10T10:21:11.608Z,99606.47
2022-09-10T10:25:43.002Z,99603.19
2022-09-10T10:30:04.057Z,99594.38
2022-09-10T10:34:18.407Z,99592.28
2022-09-10T10:38:42.605Z,99588.81
2022-09-10T10:42:54.156Z,99588.56
2022-09-10T10:47:42.914Z,99585.59
2022-09-10T10:52:27.494Z,99574.19
2022-09-10T10:56:42.665Z,99583.03
2022-09-10T11:01:18.338Z,99588.38
2022-09-10T11:05:38.837Z,99587.34
2022-09-10T11:09:51.129Z,99576.56
2022-09-10T11:14:32.497Z,99567.09
2022-09-10T11:19:13.903Z,99564.41
2022-09-10T11:29:01.892Z,99569.72
2022-09-10T11:34:04.079Z,99572.84
2022-09-10T11:38:32.307Z,99566.47
2022-09-10T11:42:54.132Z,99550.19
2022-09-10T11:47:29.453Z,99547.97
2022-09-10T11:51:46.413Z,99550.00
2022-09-10T11:56:15.208Z,99560.16
2022-09-10T12:00:34.270Z,99563.91
2022-09-10T12:04:47.670Z,99561.47
2022-09-10T12:09:00.983Z,99539.53
2022-09-10T12:13:08.350Z,99540.13
2022-09-10T12:17:36.829Z,99546.16
2022-09-10T12:21:42.793Z,99545.34
2022-09-10T12:25:44.503Z,99532.31
2022-09-10T12:29:46.539Z,99547.59
2022-09-10T12:33:48.242Z,99546.25
2022-09-10T12:37:52.910Z,99540.31
2022-09-10T12:42:02.616Z,99524.72
2022-09-10T12:46:18.991Z,99543.50
2022-09-10T12:50:28.952Z,99529.78
2022-09-10T12:54:47.034Z,99540.88
2022-09-10T12:59:17.480Z,99527.75
2022-09-10T13:03:28.772Z,99527.78
2022-09-10T13:07:37.343Z,99539.28
2022-09-10T13:11:39.185Z,99527.78
2022-09-10T13:15:50.337Z,99512.06
2022-09-10T13:19:52.224Z,99533.97
2022-09-10T13:23:54.982Z,99503.81
2022-09-10T13:27:57.052Z,99524.97
2022-09-10T13:32:14.160Z,99513.88
2022-09-10T13:36:41.667Z,99519.47
2022-09-10T13:41:14.406Z,99500.13
2022-09-10T13:45:38.396Z,99503.38
2022-09-10T13:50:02.631Z,99510.81
2022-09-10T13:54:11.439Z,99508.63
2022-09-10T13:58:16.479Z,99521.59
2022-09-10T14:02:19.812Z,99505.00
2022-09-10T14:06:22.765Z,99489.88
2022-09-10T14:10:24.516Z,99507.78
2022-09-10T14:14:32.362Z,99512.91
2022-09-10T14:19:01.819Z,99511.59
2022-09-10T14:23:15.259Z,99494.53
2022-09-10T14:27:27.641Z,99493.03
2022-09-10T14:31:34.286Z,99500.91
2022-09-10T14:35:44.323Z,99498.28
2022-09-10T14:39:46.123Z,99488.78
2022-09-10T14:43:48.200Z,99495.31
2022-09-10T14:47:53.928Z,99503.44
2022-09-10T14:51:57.144Z,99493.72
2022-09-10T14:55:59.261Z,99502.63
2022-09-10T15:00:01.085Z,99502.34
2022-09-10T15:04:03.475Z,99494.00
2022-09-10T15:08:05.293Z,99492.72
2022-09-10T15:12:15.390Z,99499.56
2022-09-10T15:16:17.780Z,99516.13
2022-09-10T15:20:21.256Z,99516.91
2022-09-10T15:24:24.579Z,99526.44
2022-09-10T15:28:26.351Z,99523.38
2022-09-10T15:32:28.172Z,99533.78
2022-09-10T15:36:29.952Z,99539.31
2022-09-10T15:40:31.832Z,99537.84
2022-09-10T15:44:33.710Z,99539.03
2022-09-10T15:48:35.613Z,99550.34
2022-09-10T15:52:38.245Z,99544.88
2022-09-10T15:56:40.466Z,99547.47
2022-09-10T16:00:42.431Z,99550.03
2022-09-10T16:04:46.881Z,99546.91
2022-09-10T16:09:01.013Z,99545.91
2022-09-10T16:13:02.696Z,99545.59
2022-09-10T16:17:10.389Z,99540.66
2022-09-10T16:21:17.189Z,99547.97
2022-09-10T16:25:19.353Z,99548.22
2022-09-10T16:29:21.335Z,99560.97
2022-09-10T16:33:25.744Z,99561.19
2022-09-10T16:37:28.386Z,99554.47
2022-09-10T16:41:30.924Z,99553.25
2022-09-10T16:45:35.570Z,99559.41
2022-09-10T16:49:37.320Z,99553.69
2022-09-10T16:53:39.464Z,99568.69
2022-09-10T16:57:41.318Z,99564.69
2022-09-10T17:01:44.153Z,99577.09
2022-09-10T17:05:46.938Z,99569.94
2022-09-10T17:09:48.839Z,99579.47
2022-09-10T17:14:06.036Z,99560.50
2022-09-10T17:18:08.023Z,99560.84
2022-09-10T17:22:10.903Z,99577.22
2022-09-10T17:26:12.978Z,99582.59
2022-09-10T17:30:14.934Z,99583.53
2022-09-10T17:34:24.678Z,99576.28
2022-09-10T17:38:29.113Z,99577.97
2022-09-10T17:42:34.150Z,99583.47
2022-09-10T17:46:38.815Z,99585.41
2022-09-10T17:50:50.322Z,99585.66
2022-09-10T17:54:56.577Z,99583.13
2022-09-10T17:59:02.701Z,99582.56
2022-09-10T18:03:05.161Z,99601.19
2022-09-10T18:07:07.160Z,99597.81
2022-09-10T18:11:12.263Z,99603.94
2022-09-10T18:15:14.252Z,99613.13
2022-09-10T18:19:21.605Z,99621.72
2022-09-10T18:23:23.583Z,99620.13
2022-09-10T18:27:26.450Z,99610.34
2022-09-10T18:31:33.845Z,99618.72
2022-09-10T18:36:07.485Z,99620.56
2022-09-10T18:40:10.843Z,99617.34
2022-09-10T18:44:28.366Z,99619.53
2022-09-10T18:48:53.569Z,99615.25
2022-09-10T18:52:58.937Z,99621.34
2022-09-10T18:57:10.950Z,99632.72
2022-09-10T19:01:14.459Z,99646.91
2022-09-10T19:05:16.589Z,99652.19
2022-09-10T19:09:23.106Z,99650.34
2022-09-10T19:13:31.485Z,99663.81
2022-09-10T19:17:37.694Z,99658.72
2022-09-10T19:21:43.049Z,99663.00
2022-09-10T19:25:53.483Z,99660.94
2022-09-10T19:29:55.877Z,99653.88
2022-09-10T19:34:05.355Z,99656.94
2022-09-10T19:38:27.234Z,99669.78
2022-09-10T19:42:30.362Z,99661.84
2022-09-10T19:46:33.522Z,99657.38
2022-09-10T19:50:35.412Z,99667.75
2022-09-10T19:54:42.291Z,99665.72
2022-09-10T19:58:44.339Z,99670.81
2022-09-10T20:02:49.975Z,99650.44
2022-09-10T20:06:52.270Z,99651.25
2022-09-10T20:10:56.846Z,99646.16
2022-09-10T20:14:58.607Z,99644.16
2022-09-10T20:19:02.425Z,99639.66
2022-09-10T20:23:04.275Z,99642.09
2022-09-10T20:27:06.029Z,99637.22
2022-09-10T20:31:09.817Z,99631.50
2022-09-10T20:35:14.857Z,99646.19
2022-09-10T20:39:18.410Z,99639.66
2022-09-10T20:43:23.115Z,99647.81
2022-09-10T20:47:30.807Z,99635.81
2022-09-10T20:51:40.611Z,99635.00
2022-09-10T20:55:44.783Z,99636.44
2022-09-10T20:59:47.759Z,99638.03
2022-09-10T21:03:53.028Z,99643.72
2022-09-10T21:07:55.503Z,99630.47
2022-09-10T21:11:57.400Z,99645.97
2022-09-10T21:16:11.163Z,99647.16
2022-09-10T21:20:13.421Z,99634.72
2022-09-10T21:24:22.401Z,99634.94
2022-09-10T21:28:24.256Z,99646.53
2022-09-10T21:32:26.017Z,99635.97
2022-09-10T21:36:28.154Z,99651.38
2022-09-10T21:40:31.179Z,99651.31
2022-09-10T21:44:32.988Z,99650.31
2022-09-10T21:48:37.514Z,99662.91
2022-09-10T21:52:41.022Z,99664.31
2022-09-10T21:56:42.750Z,99662.59
2022-09-10T22:00:44.547Z,99663.75
2022-09-10T22:04:46.395Z,99669.44
2022-09-10T22:08:50.655Z,99677.75
2022-09-10T22:12:52.870Z,99679.16
2022-09-10T22:16:55.136Z,99678.69
2022-09-10T22:21:00.940Z,99678.31
2022-09-10T22:25:02.891Z,99687.50
2022-09-10T22:29:04.616Z,99693.78
2022-09-10T22:33:06.458Z,99679.31
2022-09-10T22:37:08.190Z,99697.31
2022-09-10T22:41:10.315Z,99698.09
2022-09-10T22:45:12.531Z,99711.06
2022-09-10T22:49:16.082Z,99709.81
2022-09-10T22:53:18.018Z,99700.69
2022-09-10T22:57:19.754Z,99700.75
2022-09-10T23:01:24.360Z,99701.00
2022-09-10T23:05:26.151Z,99711.78
2022-09-10T23:09:28.034Z,99703.03
2022-09-10T23:13:29.842Z,99703.25
2022-09-10T23:17:31.805Z,99704.88
2022-09-10T23:21:34.501Z,99724.66
2022-09-10T23:25:36.285Z,99716.06
2022-09-10T23:29:37.998Z,99714.53
2022-09-10T23:33:48.687Z,99724.06
2022-09-10T23:37:51.258Z,99724.78
2022-09-10T23:41:56.669Z,99723.56
2022-09-10T23:45:58.982Z,99728.44
2022-09-10T23:50:00.831Z,99736.59
2022-09-10T23:54:02.954Z,99734.06
2022-09-10T23:58:04.652Z,99731.03
